Bokoshe, OK

3:35 PM CDT on September 18, 2014 (GMT -0500)
Fort Smith Regional | Change Station
CLOSE
Current Station
Airport
Location: Fort Smith,
Elevation: 463 ft
Nearby Weather Stations

Elev 463 ft 35.33 °N, 94.36 °W | Updated 42 minutes ago

Clear
Clear
82 °F
Feels Like 83 °F
N
13
Wind Variable Wind from NE

Today
High -- | Low -- °F
--% Chance of Precip.
Yesterday
High -- | Low -- °F
Precip. -- in
7:04 AM 7:21 PM
Waning Crescent, 24% visible
Pressure 29.91 in
Visibility 10.0 miles
Clouds Clear
Heat Index 83 °F
Dew Point 63 °F
Humidity 52%
Rainfall 0.00 in
Snow Depth Not available.
UV 7 out of 12
Pollen 9.20 out of 12
Air Quality Not available.
Flu Activity Not available.
METAR KFSM 181953Z 05011KT 10SM CLR 28/17 A2992 RMK AO2 SLP128 T02780172

More Conditions Fewer Conditions

Pressure 29.91 in
Visibility 10.0 miles
Clouds Clear
Heat Index 83 °F
Dew Point 63 °F
Humidity 52%
Rainfall 0.00 in
Snow Depth Not available.
UV 7 out of 12
Pollen 9.20 out of 12
Air Quality Not available.
Flu Activity Not available.
METAR KFSM 181953Z 05011KT 10SM CLR 28/17 A2992 RMK AO2 SLP128 T02780172

More Conditions Fewer Conditions

Nowcast | as of 3:01 PM CDT on September 18, 2014

At 3:01 PM...National Weather Service Doppler radar indicated weakening showers dropping south out of Kansas and into far northeast Oklahoma. This activity was primarily impacting portions of Osage...Washington and Nowata counties. Through 4:30 PM...occasional light showers and sprinkles will remain possible for Osage...Washington and Nowata counties. A continued weakening trend is anticipated during this time. As a result...rainfall totals will be low...averaging less than one tenth of an inch.

×

10-Day Weather Forecast

Almanac

Astronomy

Sep. 18, 2014 Rise Set
Actual Time 7:04 AM CDT 7:21 PM CDT
Civil Twilight 6:38 AM CDT 7:47 PM CDT
Nautical Twilight 6:09 AM CDT 8:16 PM CDT
Astronomical Twilight 5:39 AM CDT 8:46 PM CDT
Moon 2:05 AM CDT 4:05 PM CDT
Length of Visible Light 13h 08m
Length of Day
12h 17m
Tomorrow will be 2m 11s shorter.
Waning Crescent, 24% of the Moon is Illuminated
Today
Waning Crescent
Sep 24
New
Oct 1
First Quarter
Oct 8
Full
Oct 15
Last Quarter

Today's Extremes

State Highs State Lows

Community

WunderPhotos

Upload Photos

1,754,430 photos uploaded!

WunderBlogs® & News

By Dr. Jeff Masters
Director of Meteorology, Weather Underground
By Kari Strenfel
Meteorologist, Weather Underground
By Christopher C. Burt
Weather Historian, Weather Underground
September 18, 2014
September 18, 2014
September 18, 2014

Nearby

Snow Depth

Station Depth Elevation
No new snow has been reported.

Earthquake Activity

City Distance Mag. Time & Date
No recent earthquake activity has been reported nearby.
Minimum magnitude displayed is 2.5.

Coastal Water Temperatures

Place Temperature
No Stations Reporting

Nearby Weather Stations